Time;durP1;ratioP1;P1;durP2;ratioP2;P2;SDS_P1;SDS_P2;PMS_P1;PMS_P2;Temp;Humidity;BMP_temperature;BMP_pressure;BME280_temperature;BME280_humidity;BME280_pressure;Samples;Min_cycle;Max_cycle;Signal;HPM_P1;HPM_P2
2022/11/10 00:00:05;;;;;;;11.83;4.13;;;-4.90;99.90;;;;;;5079523;28;20179;-71
2022/11/10 00:02:31;;;;;;;15.10;3.57;;;-4.00;99.90;;;;;;5091847;28;20191;-71
2022/11/10 00:04:57;;;;;;;15.60;3.37;;;-5.00;99.90;;;;;;5094474;28;20753;-71
2022/11/10 00:07:27;;;;;;;8.73;3.03;;;-5.50;99.90;;;;;;5097253;28;20189;-75
2022/11/10 00:09:53;;;;;;;12.70;3.37;;;-6.20;99.90;;;;;;5096379;28;20193;-74
2022/11/10 00:12:20;;;;;;;7.90;3.53;;;-5.30;99.90;;;;;;5092688;28;20214;-75
2022/11/10 00:17:34;;;;;;;16.73;3.30;;;-4.70;99.90;;;;;;5082762;28;20605;-73
2022/11/10 00:20:00;;;;;;;15.30;4.40;;;-5.50;99.90;;;;;;5092194;28;20224;-69
2022/11/10 00:22:26;;;;;;;12.50;3.27;;;-5.40;99.90;;;;;;5097190;28;20225;-71
2022/11/10 00:24:51;;;;;;;15.50;3.43;;;-5.60;99.90;;;;;;5096812;28;20178;-71
2022/11/10 00:27:17;;;;;;;16.13;4.00;;;-4.70;99.90;;;;;;5086751;28;20187;-71
2022/11/10 00:29:43;;;;;;;14.90;3.80;;;-4.20;99.90;;;;;;5088026;28;20270;-74
2022/11/10 00:32:09;;;;;;;12.57;4.00;;;-5.10;99.90;;;;;;5092336;28;20242;-71
2022/11/10 00:34:35;;;;;;;15.13;3.60;;;-7.60;99.90;;;;;;5088769;28;20533;-73
2022/11/10 00:37:02;;;;;;;10.17;2.73;;;-7.50;99.90;;;;;;5082962;28;20181;-74
2022/11/10 00:39:27;;;;;;;13.37;3.30;;;-7.80;99.90;;;;;;5092481;28;20189;-76
2022/11/10 00:41:54;;;;;;;12.07;3.83;;;-7.30;99.90;;;;;;5095272;28;20519;-77
2022/11/10 00:44:19;;;;;;;11.13;3.40;;;-6.80;99.90;;;;;;5094301;28;20197;-72
2022/11/10 00:46:45;;;;;;;4.17;2.53;;;-7.10;99.90;;;;;;5093236;28;20189;-72
2022/11/10 00:49:11;;;;;;;11.63;4.20;;;-6.80;99.90;;;;;;5088774;28;20186;-74
2022/11/10 00:51:37;;;;;;;7.03;3.00;;;-6.30;99.90;;;;;;5092079;28;20234;-74
2022/11/10 00:54:03;;;;;;;14.53;3.13;;;-5.90;99.90;;;;;;5095455;28;20327;-73
2022/11/10 00:56:29;;;;;;;8.37;3.00;;;-5.60;99.90;;;;;;5089227;28;20254;-72
2022/11/10 00:58:54;;;;;;;9.27;3.27;;;-5.60;99.90;;;;;;5090764;28;20193;-75
2022/11/10 01:01:25;;;;;;;11.97;3.23;;;-6.20;99.90;;;;;;5095229;28;20584;-75
2022/11/10 01:03:52;;;;;;;13.17;4.47;;;-7.30;99.90;;;;;;5096505;28;20519;-75
2022/11/10 01:06:19;;;;;;;8.93;3.47;;;-6.50;99.90;;;;;;5096459;28;20192;-75
2022/11/10 01:08:46;;;;;;;17.10;3.63;;;-5.20;99.90;;;;;;5096324;28;20208;-75
2022/11/10 01:11:20;;;;;;;10.67;3.17;;;-3.70;99.90;;;;;;5096022;28;20202;-73
2022/11/10 01:13:48;;;;;;;10.60;2.80;;;-4.80;99.90;;;;;;5096096;28;20203;-74
2022/11/10 01:16:18;;;;;;;13.93;4.00;;;-5.30;99.90;;;;;;5084420;28;20195;-73
2022/11/10 01:18:48;;;;;;;10.03;3.47;;;-5.30;99.90;;;;;;5085668;28;20511;-72
2022/11/10 01:21:13;;;;;;;11.73;2.67;;;-5.90;99.90;;;;;;5088400;28;20303;-73
2022/11/10 01:23:39;;;;;;;18.37;4.00;;;-5.60;99.90;;;;;;5089815;28;20287;-71
2022/11/10 01:26:06;;;;;;;6.90;2.40;;;-5.40;99.90;;;;;;5084672;28;20192;-70
2022/11/10 01:28:33;;;;;;;13.40;3.47;;;-5.00;99.90;;;;;;5096164;28;20222;-69
2022/11/10 01:31:05;;;;;;;21.83;5.27;;;-4.90;99.90;;;;;;5090791;28;20296;-70
2022/11/10 01:33:31;;;;;;;7.53;3.37;;;-5.60;99.90;;;;;;5087909;28;20193;-71
2022/11/10 01:35:57;;;;;;;8.50;3.63;;;-6.10;99.90;;;;;;5084498;28;20182;-69
2022/11/10 01:38:31;;;;;;;13.27;4.13;;;-6.60;99.90;;;;;;5090515;28;20286;-71
2022/11/10 01:40:57;;;;;;;10.57;2.73;;;-6.20;99.90;;;;;;5087221;28;20246;-71
2022/11/10 01:43:24;;;;;;;12.20;3.30;;;-7.70;99.90;;;;;;5093287;28;20295;-70
2022/11/10 01:46:12;;;;;;;9.53;3.13;;;-5.70;99.90;;;;;;5095854;28;20189;-75
2022/11/10 01:48:58;;;;;;;19.57;4.23;;;-5.80;99.90;;;;;;5089051;28;20656;-75
2022/11/10 01:51:33;;;;;;;10.77;2.77;;;-5.00;99.90;;;;;;5077480;28;20249;-75
2022/11/10 01:54:06;;;;;;;9.67;4.07;;;-5.00;99.90;;;;;;5085646;28;20181;-74
2022/11/10 01:56:38;;;;;;;9.60;3.70;;;-6.50;99.90;;;;;;5091141;28;20197;-75
2022/11/10 01:59:08;;;;;;;16.17;4.30;;;-6.10;99.90;;;;;;5096035;28;20272;-75
2022/11/10 02:01:33;;;;;;;23.70;4.13;;;-7.70;99.90;;;;;;5094493;28;20487;-74
2022/11/10 02:04:03;;;;;;;16.07;5.33;;;-7.80;99.90;;;;;;5085838;28;20212;-70
2022/11/10 02:06:33;;;;;;;11.23;3.40;;;-6.80;99.90;;;;;;5095666;28;20197;-74
2022/11/10 02:08:59;;;;;;;19.43;3.60;;;-8.20;99.90;;;;;;5083296;28;20189;-73
2022/11/10 02:11:27;;;;;;;15.83;4.20;;;-8.30;99.90;;;;;;5091683;28;20220;-75
2022/11/10 02:13:53;;;;;;;13.03;3.50;;;-8.20;99.90;;;;;;5095608;28;20209;-74
2022/11/10 02:16:21;;;;;;;16.70;3.13;;;-7.60;99.90;;;;;;5089610;28;20191;-75
2022/11/10 02:18:48;;;;;;;11.00;2.57;;;-8.50;99.90;;;;;;5084815;28;20235;-69
2022/11/10 02:21:16;;;;;;;14.97;4.43;;;-8.00;99.90;;;;;;5095388;28;20226;-70
2022/11/10 02:23:43;;;;;;;11.47;4.03;;;-6.50;99.90;;;;;;5082301;28;20185;-69
2022/11/10 02:26:09;;;;;;;17.43;3.63;;;-6.10;99.90;;;;;;5080263;28;20195;-70
2022/11/10 02:28:37;;;;;;;13.67;3.73;;;-6.40;99.90;;;;;;5088116;28;20498;-69
2022/11/10 02:31:04;;;;;;;11.53;3.17;;;-7.30;99.90;;;;;;5093873;28;20217;-69
2022/11/10 02:33:30;;;;;;;15.90;3.20;;;-7.00;99.90;;;;;;5095478;28;20266;-70
2022/11/10 02:35:56;;;;;;;11.17;2.57;;;-7.10;99.90;;;;;;5088067;28;20315;-70
2022/11/10 02:38:22;;;;;;;6.63;3.23;;;-5.80;99.90;;;;;;5090657;28;20237;-70
2022/11/10 02:40:50;;;;;;;13.50;2.37;;;-7.30;99.90;;;;;;5092273;28;20508;-73
2022/11/10 02:43:18;;;;;;;18.13;3.83;;;-7.20;99.90;;;;;;5094286;28;20181;-73
2022/11/10 02:45:44;;;;;;;10.60;4.23;;;-9.20;99.90;;;;;;5087968;28;20173;-75
2022/11/10 02:48:12;;;;;;;8.93;2.70;;;-7.40;99.90;;;;;;5090180;28;20185;-74
2022/11/10 02:50:39;;;;;;;10.37;3.53;;;-7.20;99.90;;;;;;5095158;28;20186;-75
2022/11/10 02:53:05;;;;;;;12.77;4.33;;;-7.70;99.90;;;;;;5089346;28;20174;-75
2022/11/10 02:55:31;;;;;;;21.23;4.17;;;-7.50;99.90;;;;;;5095274;28;20189;-74
2022/11/10 02:57:57;;;;;;;8.97;2.93;;;-8.40;99.90;;;;;;5095142;28;20276;-77
2022/11/10 03:00:23;;;;;;;15.30;3.87;;;-7.70;99.90;;;;;;5097719;28;20269;-75
2022/11/10 03:02:56;;;;;;;17.00;2.83;;;-7.30;99.90;;;;;;5094066;28;20605;-75
2022/11/10 03:05:21;;;;;;;15.27;4.60;;;-7.30;99.90;;;;;;5092775;28;20215;-74
2022/11/10 03:07:55;;;;;;;18.20;3.27;;;-6.80;99.90;;;;;;5084569;28;20184;-74
2022/11/10 03:10:21;;;;;;;22.07;3.80;;;-7.30;99.90;;;;;;5092725;28;20189;-70
2022/11/10 03:12:47;;;;;;;15.67;2.63;;;-6.50;99.90;;;;;;5093217;28;20285;-73
2022/11/10 03:15:13;;;;;;;15.67;3.27;;;-7.10;99.90;;;;;;5098283;28;20257;-76
2022/11/10 03:17:39;;;;;;;24.93;4.20;;;-7.60;99.90;;;;;;5097318;28;20181;-73
2022/11/10 03:20:06;;;;;;;5.77;2.37;;;-7.50;99.90;;;;;;5090173;28;20190;-74
2022/11/10 03:22:32;;;;;;;16.87;3.33;;;-8.50;99.90;;;;;;5090574;28;20178;-72
2022/11/10 03:24:57;;;;;;;16.30;3.83;;;-8.30;99.90;;;;;;5091646;28;20181;-73
2022/11/10 03:27:23;;;;;;;13.13;3.17;;;-7.20;99.90;;;;;;5086385;28;20276;-74
2022/11/10 03:29:49;;;;;;;12.40;3.10;;;-6.90;99.90;;;;;;5092406;28;20230;-73
2022/11/10 03:32:14;;;;;;;10.30;3.00;;;-6.50;99.90;;;;;;5097827;28;20213;-75
2022/11/10 03:34:40;;;;;;;12.90;4.07;;;-6.60;99.90;;;;;;5092444;28;20181;-75
2022/11/10 03:37:06;;;;;;;12.57;3.70;;;-6.80;99.90;;;;;;5097652;28;20219;-76
2022/11/10 03:39:32;;;;;;;9.90;2.73;;;-6.40;99.90;;;;;;5079134;28;20185;-72
2022/11/10 03:41:58;;;;;;;12.40;3.10;;;-6.60;99.90;;;;;;5090097;28;20257;-70
2022/11/10 03:44:23;;;;;;;16.63;3.73;;;-8.10;99.90;;;;;;5097175;28;20189;-70
2022/11/10 03:46:49;;;;;;;12.57;2.97;;;-7.10;99.90;;;;;;5097579;28;20254;-72
2022/11/10 03:49:15;;;;;;;13.00;3.03;;;-8.20;99.90;;;;;;5096052;28;20195;-70
2022/11/10 03:51:40;;;;;;;16.10;3.30;;;-8.10;99.90;;;;;;5093289;28;20283;-69
2022/11/10 03:54:06;;;;;;;9.50;3.30;;;-8.60;99.90;;;;;;5095063;28;20175;-69
2022/11/10 03:56:32;;;;;;;17.77;4.43;;;-7.10;99.90;;;;;;5086009;28;20256;-69
2022/11/10 03:58:58;;;;;;;13.40;3.40;;;-8.20;99.90;;;;;;5097536;28;20556;-71
2022/11/10 04:01:23;;;;;;;13.33;2.97;;;-8.30;99.90;;;;;;5096567;28;20188;-71
2022/11/10 04:03:49;;;;;;;11.13;3.27;;;-8.00;99.90;;;;;;5091612;28;20582;-71
2022/11/10 04:09:00;;;;;;;13.57;4.03;;;-5.90;99.90;;;;;;5097655;28;20241;-72
2022/11/10 04:16:56;;;;;;;21.67;4.87;;;-6.70;99.90;;;;;;5086570;28;20183;-72
2022/11/10 04:19:22;;;;;;;11.00;2.93;;;-6.50;99.90;;;;;;5090941;28;20173;-71
2022/11/10 04:21:47;;;;;;;13.77;3.87;;;-5.60;99.90;;;;;;5097278;28;20487;-73
2022/11/10 04:24:13;;;;;;;11.77;3.87;;;-5.80;99.90;;;;;;5090538;28;20189;-71
2022/11/10 04:26:41;;;;;;;14.90;4.30;;;-5.60;99.90;;;;;;5097147;28;20188;-69
2022/11/10 04:29:09;;;;;;;11.10;3.13;;;-5.50;99.90;;;;;;5091059;28;20579;-72
2022/11/10 04:31:37;;;;;;;15.83;4.47;;;-5.70;99.90;;;;;;5095506;28;20213;-71
2022/11/10 04:34:05;;;;;;;15.37;3.80;;;-6.80;99.90;;;;;;5095129;28;20271;-73
2022/11/10 04:36:34;;;;;;;14.77;3.93;;;-8.30;99.90;;;;;;5092501;28;20227;-74
2022/11/10 04:39:00;;;;;;;12.27;3.23;;;-5.80;99.90;;;;;;5096882;28;20647;-72
2022/11/10 04:41:28;;;;;;;20.27;4.50;;;-5.40;99.90;;;;;;5096868;28;20635;-70
2022/11/10 04:43:55;;;;;;;13.30;3.97;;;-5.50;99.90;;;;;;5096751;28;20240;-70
2022/11/10 04:46:31;;;;;;;11.60;2.80;;;-7.20;99.90;;;;;;5096611;28;20638;-69
2022/11/10 04:48:57;;;;;;;6.37;2.97;;;-7.70;99.90;;;;;;5096743;28;20282;-71
2022/11/10 04:51:28;;;;;;;12.43;2.93;;;-6.90;99.90;;;;;;5090511;28;20220;-71
2022/11/10 04:53:55;;;;;;;13.43;3.63;;;-10.40;99.90;;;;;;5091591;28;20212;-71
2022/11/10 04:56:22;;;;;;;10.27;3.20;;;-10.00;99.90;;;;;;5084761;28;20177;-70
2022/11/10 04:58:49;;;;;;;17.37;3.90;;;-8.90;99.90;;;;;;5084963;28;20260;-71
2022/11/10 05:01:17;;;;;;;20.70;4.67;;;-9.40;99.90;;;;;;5084733;28;20239;-71
2022/11/10 05:03:44;;;;;;;14.27;3.33;;;-9.30;99.90;;;;;;5089645;28;20248;-73
2022/11/10 05:06:10;;;;;;;16.93;3.50;;;-9.80;99.90;;;;;;5096385;28;20186;-69
2022/11/10 05:08:40;;;;;;;12.13;4.00;;;-8.80;99.90;;;;;;5088183;28;20181;-71
2022/11/10 05:11:06;;;;;;;9.73;2.87;;;-8.30;99.90;;;;;;5086982;28;20690;-69
2022/11/10 05:13:32;;;;;;;13.50;3.17;;;-8.60;99.90;;;;;;5089152;28;20166;-68
2022/11/10 05:15:58;;;;;;;20.90;3.57;;;-9.30;99.90;;;;;;5088849;28;20470;-69
2022/11/10 05:18:24;;;;;;;5.83;3.07;;;-9.50;99.90;;;;;;5092527;28;20264;-73
2022/11/10 05:20:52;;;;;;;12.90;3.73;;;-8.60;99.90;;;;;;5095975;28;20272;-70
2022/11/10 05:23:39;;;;;;;6.33;2.97;;;-8.40;99.90;;;;;;5089082;28;20178;-69
2022/11/10 05:26:10;;;;;;;15.97;3.80;;;-9.10;99.90;;;;;;5090226;28;20169;-72
2022/11/10 05:28:37;;;;;;;9.73;2.97;;;-9.20;99.90;;;;;;5079411;28;20178;-69
2022/11/10 05:31:03;;;;;;;13.80;3.07;;;-10.30;99.90;;;;;;5093405;28;20300;-69
2022/11/10 05:33:29;;;;;;;15.40;3.10;;;-8.50;99.90;;;;;;5096024;28;20273;-70
2022/11/10 05:35:55;;;;;;;12.97;3.17;;;-9.10;99.90;;;;;;5096054;28;20176;-70
2022/11/10 05:38:20;;;;;;;13.27;3.87;;;-8.50;99.90;;;;;;5092317;28;20173;-69
2022/11/10 05:40:46;;;;;;;19.63;4.03;;;-6.60;99.90;;;;;;5095751;28;20181;-70
2022/11/10 05:43:12;;;;;;;8.53;2.57;;;-8.30;99.90;;;;;;5087983;28;20261;-71
2022/11/10 05:45:38;;;;;;;25.13;5.20;;;-8.20;99.90;;;;;;5091808;28;20189;-69
2022/11/10 05:48:04;;;;;;;12.70;3.57;;;-9.10;99.90;;;;;;5094926;28;20188;-69
2022/11/10 05:50:29;;;;;;;11.93;3.53;;;-7.60;99.90;;;;;;5096088;28;20183;-71
2022/11/10 05:52:55;;;;;;;13.47;4.53;;;-8.20;99.90;;;;;;5088192;28;20202;-74
2022/11/10 05:55:24;;;;;;;14.00;3.53;;;-8.70;99.90;;;;;;5083749;28;20188;-71
2022/11/10 05:57:51;;;;;;;7.40;2.70;;;-8.60;99.90;;;;;;5091296;28;20582;-71
2022/11/10 06:00:23;;;;;;;12.23;3.50;;;-8.70;99.90;;;;;;5081798;28;20182;-75
2022/11/10 06:03:16;;;;;;;12.13;3.60;;;-9.20;99.90;;;;;;5083534;28;20192;-71
2022/11/10 06:05:42;;;;;;;12.73;3.37;;;-9.30;99.90;;;;;;5092731;28;20271;-71
2022/11/10 06:08:08;;;;;;;22.33;5.43;;;-8.70;99.90;;;;;;5088972;28;20213;-70
2022/11/10 06:10:35;;;;;;;9.90;3.70;;;-9.20;99.90;;;;;;5110902;28;20197;-72
2022/11/10 06:13:01;;;;;;;16.77;3.57;;;-8.80;99.90;;;;;;5091754;28;20488;-72
2022/11/10 06:15:27;;;;;;;14.43;4.60;;;-7.80;99.90;;;;;;5091228;28;20187;-70
2022/11/10 06:17:53;;;;;;;15.90;4.37;;;-8.10;99.90;;;;;;5087709;28;20666;-71
2022/11/10 06:20:19;;;;;;;8.27;3.40;;;-7.30;99.90;;;;;;5090976;28;20251;-72
2022/11/10 06:23:05;;;;;;;22.97;4.13;;;-8.70;99.90;;;;;;5095219;28;20202;-70
2022/11/10 06:25:33;;;;;;;15.13;4.53;;;-8.40;99.90;;;;;;5095166;28;20207;-71
2022/11/10 06:27:59;;;;;;;14.83;4.07;;;-7.50;99.90;;;;;;5095277;28;20192;-69
2022/11/10 06:30:26;;;;;;;16.03;4.63;;;-8.00;99.90;;;;;;5086716;28;20174;-69
2022/11/10 06:32:52;;;;;;;13.67;4.23;;;-7.60;99.90;;;;;;5085694;28;20196;-69
2022/11/10 06:35:19;;;;;;;13.47;3.70;;;-8.00;99.90;;;;;;5089543;28;20188;-69
2022/11/10 06:37:45;;;;;;;17.73;4.23;;;-8.40;99.90;;;;;;5090810;28;20212;-69
2022/11/10 06:40:12;;;;;;;13.87;4.17;;;-6.80;99.90;;;;;;5091514;28;20185;-70
2022/11/10 06:42:38;;;;;;;13.00;3.33;;;-7.60;99.90;;;;;;5098265;28;20263;-69
2022/11/10 06:45:05;;;;;;;11.33;3.77;;;-7.80;99.90;;;;;;5087402;28;20238;-70
2022/11/10 06:47:30;;;;;;;13.50;3.83;;;-8.20;99.90;;;;;;5094530;28;20177;-71
2022/11/10 06:49:56;;;;;;;16.87;4.70;;;-7.20;99.90;;;;;;5092130;28;20206;-70
2022/11/10 06:52:22;;;;;;;13.30;5.10;;;-6.90;99.90;;;;;;5086144;28;20510;-72
2022/11/10 06:54:48;;;;;;;11.20;4.97;;;-8.20;99.90;;;;;;5092094;28;20177;-70
2022/11/10 06:57:13;;;;;;;9.57;5.80;;;-8.00;99.90;;;;;;5098710;28;20184;-71
2022/11/10 06:59:39;;;;;;;10.13;3.27;;;-8.90;99.90;;;;;;5094746;28;20173;-72
2022/11/10 07:02:08;;;;;;;18.00;5.03;;;-8.20;99.90;;;;;;5098595;28;20195;-71
2022/11/10 07:04:33;;;;;;;14.47;3.90;;;-7.80;99.90;;;;;;5095041;28;20228;-78
2022/11/10 07:06:59;;;;;;;16.17;6.87;;;-7.30;99.90;;;;;;5093156;28;20183;-75
2022/11/10 07:09:25;;;;;;;21.60;6.60;;;-6.30;99.90;;;;;;5090810;28;20462;-77
2022/11/10 07:11:51;;;;;;;11.40;4.87;;;-5.90;99.90;;;;;;5091654;28;20265;-76
2022/11/10 07:14:17;;;;;;;11.30;4.10;;;-8.10;99.90;;;;;;5092620;28;20178;-71
2022/11/10 07:16:42;;;;;;;18.20;5.07;;;-8.40;99.90;;;;;;5092521;28;20170;-72
2022/11/10 07:19:08;;;;;;;18.13;5.57;;;-8.50;99.90;;;;;;5085964;28;20529;-74
2022/11/10 07:21:34;;;;;;;16.40;4.60;;;-9.60;99.90;;;;;;5098508;28;20184;-72
2022/11/10 07:24:00;;;;;;;18.43;5.70;;;-9.20;99.90;;;;;;5087397;28;20207;-71
2022/11/10 07:26:25;;;;;;;17.10;5.27;;;-9.00;99.90;;;;;;5086139;28;20184;-72
2022/11/10 07:28:51;;;;;;;21.47;6.37;;;-8.90;99.90;;;;;;5085359;28;20176;-73
2022/11/10 07:31:17;;;;;;;16.67;4.70;;;-9.10;99.90;;;;;;5093810;28;20235;-77
2022/11/10 07:33:42;;;;;;;18.13;5.10;;;-10.10;99.90;;;;;;5094799;28;20779;-71
2022/11/10 07:36:08;;;;;;;17.37;5.23;;;-9.60;99.90;;;;;;5097824;28;20607;-74
2022/11/10 07:38:34;;;;;;;14.50;5.17;;;-9.20;99.90;;;;;;5093574;28;20474;-71
2022/11/10 07:41:00;;;;;;;24.33;5.80;;;-8.50;99.90;;;;;;5085659;28;20502;-72
2022/11/10 07:43:26;;;;;;;14.30;6.00;;;-8.10;99.90;;;;;;5085747;28;20189;-74
2022/11/10 07:45:52;;;;;;;14.73;4.73;;;-8.30;99.90;;;;;;5091568;28;20184;-73
2022/11/10 07:48:19;;;;;;;11.73;4.27;;;-8.40;99.90;;;;;;5096076;28;20179;-77
2022/11/10 07:50:45;;;;;;;19.00;4.80;;;-8.20;99.90;;;;;;5090511;28;20216;-74
2022/11/10 07:53:18;;;;;;;20.80;5.70;;;-7.60;99.90;;;;;;5092896;28;20596;-70
2022/11/10 07:55:45;;;;;;;13.40;4.13;;;-10.00;99.90;;;;;;5097258;28;20168;-73
2022/11/10 07:58:13;;;;;;;17.37;4.90;;;-10.70;99.90;;;;;;5090483;28;20435;-71
2022/11/10 08:00:39;;;;;;;20.47;4.83;;;-10.20;99.90;;;;;;5096058;28;20533;-70
2022/11/10 08:03:08;;;;;;;21.83;4.60;;;-10.00;99.90;;;;;;5079418;28;20207;-69
2022/11/10 08:05:34;;;;;;;13.47;3.87;;;-10.70;99.90;;;;;;5088898;28;20197;-69
2022/11/10 08:08:00;;;;;;;20.67;6.47;;;-10.20;99.90;;;;;;5095949;28;20260;-70
2022/11/10 08:10:27;;;;;;;13.43;4.17;;;-11.00;99.90;;;;;;5097212;28;20489;-70
2022/11/10 08:12:57;;;;;;;15.97;5.83;;;-13.10;99.90;;;;;;5092054;28;20186;-70
2022/11/10 08:15:24;;;;;;;11.63;3.80;;;-11.40;99.90;;;;;;5096939;28;20173;-69
2022/11/10 08:17:50;;;;;;;15.90;4.60;;;-11.60;99.90;;;;;;5084004;28;20198;-70
2022/11/10 08:20:16;;;;;;;11.43;4.37;;;-11.20;99.90;;;;;;5091850;28;20189;-72
2022/11/10 08:22:42;;;;;;;15.17;5.13;;;-13.10;99.90;;;;;;5097126;28;20187;-70
2022/11/10 08:25:09;;;;;;;20.57;4.77;;;-11.90;99.90;;;;;;5090344;28;20489;-69
2022/11/10 08:27:34;;;;;;;12.17;4.73;;;-11.60;99.90;;;;;;5088899;28;20182;-71
2022/11/10 08:30:00;;;;;;;14.80;5.20;;;-12.60;99.90;;;;;;5091348;28;20192;-69
2022/11/10 08:32:26;;;;;;;12.53;4.37;;;-14.50;99.90;;;;;;5088004;28;20642;-69
2022/11/10 08:34:52;;;;;;;22.73;5.70;;;-14.10;99.90;;;;;;5085421;28;20620;-70
2022/11/10 08:37:18;;;;;;;14.63;4.50;;;-11.60;99.90;;;;;;5083575;28;20173;-70
2022/11/10 08:39:43;;;;;;;11.97;4.43;;;-12.10;99.90;;;;;;5092370;28;20604;-70
2022/11/10 08:42:09;;;;;;;21.60;4.93;;;-11.30;99.90;;;;;;5094458;28;20204;-70
2022/11/10 08:44:34;;;;;;;14.33;5.43;;;-11.30;99.90;;;;;;5092682;28;20501;-70
2022/11/10 08:47:00;;;;;;;17.33;4.67;;;-11.50;99.90;;;;;;5095847;28;20540;-72
2022/11/10 08:49:26;;;;;;;14.20;5.23;;;-11.20;99.90;;;;;;5090645;28;20235;-70
2022/11/10 08:51:51;;;;;;;14.40;4.53;;;-11.80;99.90;;;;;;5093855;28;20497;-70
2022/11/10 08:54:17;;;;;;;13.30;6.27;;;-10.30;99.90;;;;;;5092356;28;20474;-73
2022/11/10 08:56:43;;;;;;;13.13;4.20;;;-10.40;99.90;;;;;;5095431;28;20181;-74
2022/11/10 08:59:08;;;;;;;11.70;4.53;;;-9.00;99.90;;;;;;5096637;28;20174;-73
2022/11/10 09:01:34;;;;;;;15.60;4.37;;;-10.40;99.90;;;;;;5094210;28;20194;-75
2022/11/10 09:04:00;;;;;;;18.40;5.27;;;-11.50;99.90;;;;;;5095694;28;20263;-74
2022/11/10 09:06:25;;;;;;;12.00;4.33;;;-11.20;99.90;;;;;;5095078;28;20189;-72
2022/11/10 09:08:51;;;;;;;14.23;4.23;;;-10.30;99.90;;;;;;5095769;28;20598;-72
2022/11/10 09:11:17;;;;;;;5.87;3.67;;;-9.80;99.90;;;;;;5085602;28;20338;-71
2022/11/10 09:13:43;;;;;;;12.40;4.27;;;-10.10;99.90;;;;;;5085083;28;20655;-71
2022/11/10 09:16:09;;;;;;;15.70;4.23;;;-9.70;99.90;;;;;;5087643;28;20190;-68
2022/11/10 09:18:35;;;;;;;18.63;4.30;;;-11.10;99.90;;;;;;5094636;28;20179;-69
2022/11/10 09:21:03;;;;;;;9.13;2.87;;;-12.40;99.90;;;;;;5092361;28;20182;-72
2022/11/10 09:23:29;;;;;;;18.63;4.17;;;-12.80;99.90;;;;;;5088149;28;20702;-69
2022/11/10 09:25:55;;;;;;;18.87;3.10;;;-11.50;99.90;;;;;;5094060;28;20183;-68
2022/11/10 09:28:22;;;;;;;11.90;3.53;;;-12.80;99.90;;;;;;5096308;28;20564;-70
2022/11/10 09:30:50;;;;;;;10.97;3.60;;;-13.00;99.90;;;;;;5090589;28;20194;-67
2022/11/10 09:33:19;;;;;;;8.37;3.07;;;-12.90;99.90;;;;;;5095348;28;20189;-68
2022/11/10 09:35:45;;;;;;;7.40;3.30;;;-14.90;99.90;;;;;;5088966;28;20239;-68
2022/11/10 09:38:11;;;;;;;13.17;3.47;;;-13.10;99.90;;;;;;5095268;28;20578;-73
2022/11/10 09:41:01;;;;;;;11.20;3.83;;;-12.10;99.90;;;;;;5089800;28;20297;-71
2022/11/10 09:43:34;;;;;;;14.87;4.20;;;-11.30;99.90;;;;;;5089788;28;20477;-73
2022/11/10 09:46:04;;;;;;;22.83;3.70;;;-12.30;99.90;;;;;;5087840;28;20174;-71
2022/11/10 09:48:34;;;;;;;13.37;3.33;;;-11.50;99.90;;;;;;5095612;28;20174;-69
2022/11/10 09:51:23;;;;;;;13.53;3.10;;;-10.80;99.90;;;;;;5090967;28;20555;-68
2022/11/10 09:54:02;;;;;;;12.27;3.50;;;-11.20;99.90;;;;;;5085918;28;20577;-71
2022/11/10 09:56:37;;;;;;;8.27;3.00;;;-13.00;99.90;;;;;;5090765;28;20179;-73
2022/11/10 09:59:31;;;;;;;7.53;2.70;;;-12.80;99.90;;;;;;5076886;28;20174;-70
2022/11/10 10:02:15;;;;;;;10.43;3.40;;;-14.30;99.90;;;;;;5090858;28;20218;-69
2022/11/10 10:05:18;;;;;;;17.00;3.73;;;-13.80;99.90;;;;;;5089940;28;20206;-71
2022/11/10 10:07:53;;;;;;;13.90;4.10;;;-14.80;99.90;;;;;;5084305;28;20178;-74
2022/11/10 10:10:33;;;;;;;7.47;3.27;;;-13.30;99.90;;;;;;5094017;28;20184;-69
2022/11/10 10:13:18;;;;;;;8.13;3.27;;;-11.60;99.90;;;;;;5093280;28;20217;-70
2022/11/10 10:16:02;;;;;;;23.50;4.33;;;-14.90;99.90;;;;;;5093936;28;20166;-72
2022/11/10 10:18:52;;;;;;;6.83;2.73;;;-14.30;99.90;;;;;;5090598;28;20187;-70
2022/11/10 10:21:43;;;;;;;8.57;3.13;;;-15.40;99.90;;;;;;5097697;28;20191;-70
2022/11/10 10:24:15;;;;;;;10.23;2.30;;;-14.50;99.90;;;;;;5098096;28;20175;-70
2022/11/10 10:26:51;;;;;;;13.00;3.50;;;-16.70;99.90;;;;;;5099439;28;20197;-69
2022/11/10 10:29:23;;;;;;;6.87;2.80;;;-14.00;99.90;;;;;;5099032;28;20267;-69
2022/11/10 10:31:51;;;;;;;12.37;3.47;;;-13.90;99.90;;;;;;5098996;28;20209;-69
2022/11/10 10:34:23;;;;;;;8.47;4.00;;;-17.80;99.90;;;;;;5090959;28;20193;-70
2022/11/10 10:36:49;;;;;;;8.23;3.07;;;-15.60;99.90;;;;;;5089190;28;20177;-72
2022/11/10 10:39:30;;;;;;;10.37;3.40;;;-12.10;99.90;;;;;;5089688;28;20187;-70
2022/11/10 10:41:56;;;;;;;10.47;3.40;;;-12.10;99.90;;;;;;5086274;28;20215;-71
2022/11/10 10:44:22;;;;;;;13.10;2.93;;;-13.90;99.90;;;;;;5098989;28;20197;-71
2022/11/10 10:46:54;;;;;;;12.87;3.37;;;-14.80;99.90;;;;;;5097248;28;20584;-70
2022/11/10 10:49:29;;;;;;;8.67;2.70;;;-13.40;99.90;;;;;;5089313;28;20198;-71
2022/11/10 10:52:04;;;;;;;8.10;2.30;;;-16.00;99.90;;;;;;5090206;28;20292;-70
2022/11/10 10:54:32;;;;;;;10.77;2.70;;;-12.70;99.90;;;;;;5090938;28;20178;-71
2022/11/10 10:57:01;;;;;;;7.50;3.20;;;-12.20;99.90;;;;;;5089491;28;20177;-70
2022/11/10 10:59:27;;;;;;;5.37;2.50;;;-11.40;99.90;;;;;;5106481;28;20182;-72
2022/11/10 11:01:54;;;;;;;8.17;2.57;;;-12.30;99.90;;;;;;5097799;28;20190;-70
2022/11/10 11:04:27;;;;;;;10.40;2.40;;;-12.60;99.90;;;;;;5092119;28;20215;-70
2022/11/10 11:07:01;;;;;;;5.70;2.40;;;-16.00;99.90;;;;;;5089798;28;20185;-71
2022/11/10 11:09:40;;;;;;;13.57;3.13;;;-13.80;99.90;;;;;;5083114;28;20182;-69
2022/11/10 11:12:13;;;;;;;8.33;3.37;;;-13.70;99.90;;;;;;5096998;28;20214;-71
2022/11/10 11:14:38;;;;;;;9.17;3.10;;;-13.00;99.90;;;;;;5097302;28;20175;-72
2022/11/10 11:17:20;;;;;;;14.37;3.30;;;-17.30;99.90;;;;;;5092025;28;20718;-70
2022/11/10 11:19:47;;;;;;;10.57;3.47;;;-9.40;99.90;;;;;;5089793;28;20235;-69
2022/11/10 11:22:18;;;;;;;7.83;2.37;;;-8.20;99.90;;;;;;5087161;28;20339;-73
2022/11/10 11:25:18;;;;;;;11.70;2.70;;;-5.80;99.90;;;;;;5089864;28;20527;-71
2022/11/10 11:28:09;;;;;;;11.50;4.30;;;-9.70;99.90;;;;;;5094488;28;20178;-69
2022/11/10 11:30:52;;;;;;;13.63;2.57;;;-16.40;99.90;;;;;;5046116;28;21095;-70
2022/11/10 11:33:29;;;;;;;5.73;2.77;;;-17.20;99.90;;;;;;5083756;28;20186;-69
2022/11/10 11:36:25;;;;;;;8.93;3.07;;;-15.40;99.90;;;;;;5094522;28;20636;-71
2022/11/10 11:39:08;;;;;;;6.97;2.43;;;-19.20;99.90;;;;;;5088860;28;20236;-73
2022/11/10 11:41:56;;;;;;;6.07;2.57;;;-20.80;99.90;;;;;;5078506;28;20179;-70
2022/11/10 11:44:49;;;;;;;4.50;1.90;;;-17.20;99.90;;;;;;5088167;28;20179;-71
2022/11/10 11:47:49;;;;;;;6.30;2.83;;;-14.30;99.90;;;;;;5092262;28;20182;-71
2022/11/10 11:50:39;;;;;;;10.63;2.63;;;-22.00;99.90;;;;;;5085512;28;20179;-70
2022/11/10 11:53:11;;;;;;;7.07;2.50;;;-18.90;99.90;;;;;;5093956;28;20198;-68
2022/11/10 11:55:48;;;;;;;5.03;2.17;;;-13.20;99.90;;;;;;5089759;28;20498;-71
2022/11/10 11:58:23;;;;;;;5.40;2.90;;;-17.00;99.90;;;;;;5104182;28;20224;-69
2022/11/10 12:01:03;;;;;;;5.70;2.53;;;-20.90;99.90;;;;;;5091839;28;20193;-68
2022/11/10 12:03:31;;;;;;;5.35;2.22;;;-19.70;99.90;;;;;;5049755;28;1218386;-68
2022/11/10 12:06:16;;;;;;;6.30;2.50;;;-27.20;99.90;;;;;;5097566;28;20197;-69
2022/11/10 12:08:59;;;;;;;5.07;1.97;;;-32.10;98.60;;;;;;5097407;28;20202;-69
2022/11/10 12:11:40;;;;;;;5.10;1.90;;;-28.60;98.80;;;;;;5090660;28;20202;-70
2022/11/10 12:14:25;;;;;;;8.67;2.20;;;-27.30;98.70;;;;;;5096744;28;20214;-70
2022/11/10 12:17:07;;;;;;;6.80;2.03;;;-22.20;99.90;;;;;;5097201;28;20187;-70
2022/11/10 12:19:47;;;;;;;2.63;1.87;;;-26.90;99.90;;;;;;5086879;28;20178;-68
2022/11/10 12:22:33;;;;;;;6.53;1.63;;;-22.30;99.90;;;;;;5085769;28;20263;-70
2022/11/10 12:25:17;;;;;;;6.83;1.70;;;-20.90;99.90;;;;;;5090584;28;20258;-68
2022/11/10 12:27:49;;;;;;;8.67;2.70;;;-15.40;99.90;;;;;;5083417;28;20182;-69
2022/11/10 12:30:17;;;;;;;7.47;1.90;;;-15.40;99.90;;;;;;5095860;28;20207;-68
2022/11/10 12:33:07;;;;;;;8.37;1.97;;;-14.30;99.90;;;;;;5095586;28;20217;-69
2022/11/10 12:35:42;;;;;;;8.27;2.63;;;-21.80;99.90;;;;;;5070020;28;20190;-70
2022/11/10 12:38:25;;;;;;;8.90;2.03;;;-13.30;99.90;;;;;;5091657;28;20197;-68
2022/11/10 12:41:22;;;;;;;3.27;1.63;;;-18.40;99.90;;;;;;5089698;28;21040;-68
2022/11/10 12:44:17;;;;;;;10.37;2.67;;;-11.70;99.90;;;;;;5081722;28;20188;-69
2022/11/10 12:46:44;;;;;;;6.40;2.87;;;-15.40;99.90;;;;;;5090273;28;20671;-71
2022/11/10 12:49:29;;;;;;;3.13;2.20;;;-12.90;99.90;;;;;;5096723;28;20214;-69
2022/11/10 12:51:58;;;;;;;9.60;2.37;;;-14.80;99.90;;;;;;5092508;28;20255;-69
2022/11/10 12:54:27;;;;;;;8.07;2.20;;;-14.40;99.90;;;;;;5083531;28;20488;-69
2022/11/10 12:56:57;;;;;;;6.53;1.80;;;-18.50;99.90;;;;;;5085371;28;20178;-69
2022/11/10 12:59:38;;;;;;;3.73;1.77;;;-21.20;99.90;;;;;;5091197;28;20179;-70